createdAt,value
2019-03-01T00:01:48.090Z,9.37
2019-03-01T00:04:17.961Z,8.00
2019-03-01T00:07:21.622Z,6.80
2019-03-01T00:12:40.472Z,8.90
2019-03-01T00:15:22.369Z,7.97
2019-03-01T00:18:04.030Z,7.57
2019-03-01T00:21:00.711Z,8.20
2019-03-01T00:23:54.990Z,9.10
2019-03-01T00:26:33.897Z,8.57
2019-03-01T00:29:33.048Z,8.00
2019-03-01T00:32:26.729Z,7.83
2019-03-01T00:35:05.337Z,6.37
2019-03-01T00:37:59.978Z,6.40
2019-03-01T00:40:44.325Z,7.87
2019-03-01T00:43:43.100Z,7.63
2019-03-01T00:46:09.144Z,8.57
2019-03-01T00:48:35.274Z,7.83
2019-03-01T00:51:01.353Z,11.03
2019-03-01T00:53:28.869Z,9.40
2019-03-01T00:55:54.951Z,10.10
2019-03-01T00:58:21.166Z,10.17
2019-03-01T01:00:47.216Z,10.00
2019-03-01T01:03:13.261Z,9.70
2019-03-01T01:05:39.351Z,9.30
2019-03-01T01:08:05.474Z,9.83
2019-03-01T01:10:31.668Z,8.10
2019-03-01T01:12:57.769Z,8.17
2019-03-01T01:15:23.822Z,9.83
2019-03-01T01:17:49.970Z,9.50
2019-03-01T01:20:16.075Z,8.63
2019-03-01T01:22:42.063Z,9.30
2019-03-01T01:25:12.414Z,8.97
2019-03-01T01:27:38.422Z,9.00
2019-03-01T01:30:10.866Z,7.60
2019-03-01T01:32:36.958Z,9.27
2019-03-01T01:35:04.021Z,9.10
2019-03-01T01:37:30.029Z,8.40
2019-03-01T01:39:56.111Z,9.93
2019-03-01T01:42:22.206Z,9.27
2019-03-01T01:44:48.235Z,9.10
2019-03-01T01:47:14.289Z,8.73
2019-03-01T01:49:40.626Z,9.10
2019-03-01T01:52:06.674Z,8.73
2019-03-01T01:54:32.700Z,11.83
2019-03-01T01:56:58.718Z,9.40
2019-03-01T01:59:24.757Z,9.90
2019-03-01T02:01:50.787Z,9.73
2019-03-01T02:04:16.821Z,9.47
2019-03-01T02:06:42.924Z,9.93
2019-03-01T02:09:17.457Z,9.70
2019-03-01T02:11:43.489Z,9.57
2019-03-01T02:14:09.774Z,9.00
2019-03-01T02:16:55.679Z,8.97
2019-03-01T02:19:21.790Z,8.70
2019-03-01T02:21:47.812Z,8.60
2019-03-01T02:24:13.858Z,8.30
2019-03-01T02:26:39.958Z,9.07
2019-03-01T02:29:06.004Z,10.50
2019-03-01T02:31:32.045Z,9.17
2019-03-01T02:33:58.109Z,9.00
2019-03-01T02:36:24.188Z,8.60
2019-03-01T02:38:50.195Z,8.47
2019-03-01T02:41:18.322Z,8.73
2019-03-01T02:43:44.483Z,10.00
2019-03-01T02:46:10.632Z,10.27
2019-03-01T02:48:36.629Z,10.30
2019-03-01T02:51:02.715Z,11.30
2019-03-01T02:53:29.814Z,9.33
2019-03-01T02:55:55.940Z,10.53
2019-03-01T02:58:22.126Z,9.30
2019-03-01T03:00:48.190Z,9.10
2019-03-01T03:03:14.238Z,8.97
2019-03-01T03:05:45.069Z,8.87
2019-03-01T03:08:11.419Z,10.43
2019-03-01T03:10:37.469Z,8.90
2019-03-01T03:13:05.454Z,9.20
2019-03-01T03:15:46.188Z,9.80
2019-03-01T03:18:12.309Z,10.37
2019-03-01T03:20:38.327Z,9.37
2019-03-01T03:23:06.341Z,9.27
2019-03-01T03:25:32.386Z,8.77
2019-03-01T03:27:58.412Z,10.07
2019-03-01T03:30:24.547Z,8.00
2019-03-01T03:32:50.690Z,9.23
2019-03-01T03:35:16.721Z,9.20
2019-03-01T03:37:43.089Z,8.73
2019-03-01T03:40:10.821Z,8.70
2019-03-01T03:42:37.154Z,8.73
2019-03-01T03:45:06.838Z,7.23
2019-03-01T03:47:32.918Z,6.60
2019-03-01T03:50:00.184Z,6.20
2019-03-01T03:52:26.767Z,5.90
2019-03-01T03:54:52.910Z,6.50
2019-03-01T03:57:18.967Z,6.57
2019-03-01T03:59:45.071Z,6.53
2019-03-01T04:02:11.111Z,6.80
2019-03-01T04:04:37.135Z,6.30
2019-03-01T04:07:03.569Z,5.30
2019-03-01T04:09:29.577Z,6.13
2019-03-01T04:11:55.616Z,5.67
2019-03-01T04:14:21.723Z,6.10
2019-03-01T04:16:47.883Z,5.90
2019-03-01T04:19:13.908Z,4.50
2019-03-01T04:21:40.129Z,5.73
2019-03-01T04:24:06.189Z,5.10
2019-03-01T04:26:32.250Z,5.60
2019-03-01T04:28:58.596Z,12.10
2019-03-01T04:31:24.723Z,9.40
2019-03-01T04:33:50.789Z,6.23
2019-03-01T04:36:16.935Z,4.97
2019-03-01T04:38:43.002Z,4.67
2019-03-01T04:41:09.124Z,4.87
2019-03-01T04:43:35.248Z,4.90
2019-03-01T04:46:01.284Z,5.00
2019-03-01T04:48:27.337Z,5.13
2019-03-01T04:50:53.420Z,5.40
2019-03-01T04:53:20.609Z,5.70
2019-03-01T04:55:46.719Z,4.93
2019-03-01T04:58:12.759Z,5.53
2019-03-01T05:00:38.797Z,6.00
2019-03-01T05:03:04.922Z,6.60
2019-03-01T05:05:31.102Z,5.07
2019-03-01T05:07:57.288Z,5.80
2019-03-01T05:10:23.594Z,6.20
2019-03-01T05:12:49.710Z,5.67
2019-03-01T05:15:19.174Z,5.63
2019-03-01T05:17:45.318Z,5.57
2019-03-01T05:20:11.910Z,6.60
2019-03-01T05:22:37.966Z,6.40
2019-03-01T05:25:25.920Z,6.90
2019-03-01T05:27:52.116Z,6.67
2019-03-01T05:30:18.272Z,7.03
2019-03-01T05:32:44.440Z,8.57
2019-03-01T05:35:10.992Z,7.50
2019-03-01T05:37:37.120Z,7.27
2019-03-01T05:40:09.446Z,7.23
2019-03-01T05:42:35.670Z,7.00
2019-03-01T05:45:02.813Z,7.53
2019-03-01T05:47:28.959Z,8.10
2019-03-01T05:49:55.076Z,8.00
2019-03-01T05:52:22.366Z,7.60
2019-03-01T05:54:48.484Z,7.83
2019-03-01T05:57:14.597Z,9.50
2019-03-01T05:59:40.637Z,8.03
2019-03-01T06:02:10.470Z,8.97
2019-03-01T06:04:40.637Z,9.80
2019-03-01T06:07:27.149Z,10.00
2019-03-01T06:10:12.427Z,10.03
2019-03-01T06:12:54.432Z,9.50
2019-03-01T06:15:46.992Z,9.47
2019-03-01T06:18:50.391Z,8.80
2019-03-01T06:21:48.045Z,8.97
2019-03-01T06:24:36.338Z,7.90
2019-03-01T06:27:16.355Z,9.00
2019-03-01T06:30:07.109Z,7.50
2019-03-01T06:32:56.621Z,8.70
2019-03-01T06:35:29.685Z,8.43
2019-03-01T06:38:27.450Z,9.30
2019-03-01T06:41:23.132Z,7.23
2019-03-01T06:44:11.355Z,8.40
2019-03-01T06:46:52.254Z,7.17
2019-03-01T06:49:20.417Z,7.03
2019-03-01T06:51:46.554Z,6.50
2019-03-01T06:54:12.595Z,5.90
2019-03-01T06:56:38.749Z,6.17
2019-03-01T06:59:04.758Z,6.10
2019-03-01T07:01:31.670Z,4.93
2019-03-01T07:03:59.723Z,4.30
2019-03-01T07:06:25.846Z,4.83
2019-03-01T07:08:52.272Z,5.67
2019-03-01T07:11:18.318Z,5.13
2019-03-01T07:13:44.382Z,4.43
2019-03-01T07:16:10.431Z,3.37
2019-03-01T07:18:36.545Z,3.80
2019-03-01T07:21:02.660Z,4.20
2019-03-01T07:23:36.580Z,4.40
2019-03-01T07:25:56.800Z,3.47
2019-03-01T07:28:23.222Z,3.70
2019-03-01T07:30:49.288Z,3.63
2019-03-01T07:33:15.324Z,4.43
2019-03-01T07:35:41.483Z,4.60
2019-03-01T07:38:07.536Z,5.03
2019-03-01T07:40:33.595Z,5.27
2019-03-01T07:42:59.646Z,4.53
2019-03-01T07:45:25.814Z,4.53
2019-03-01T07:47:53.044Z,4.50
2019-03-01T07:50:19.057Z,3.83
2019-03-01T07:52:45.232Z,4.23
2019-03-01T07:55:11.379Z,5.03
2019-03-01T07:57:37.539Z,4.97
2019-03-01T08:00:15.294Z,5.30
2019-03-01T08:02:41.466Z,5.23
2019-03-01T08:05:14.390Z,4.40
2019-03-01T08:07:41.204Z,5.50
2019-03-01T08:10:09.950Z,5.00
2019-03-01T08:12:38.666Z,6.60
2019-03-01T08:15:09.552Z,4.63
2019-03-01T08:17:36.351Z,4.93
2019-03-01T08:20:05.618Z,4.87
2019-03-01T08:22:31.673Z,4.80
2019-03-01T08:24:57.913Z,4.93
2019-03-01T08:27:25.276Z,4.70
2019-03-01T08:29:51.623Z,5.80
2019-03-01T08:32:17.852Z,6.67
2019-03-01T08:34:43.964Z,5.80
2019-03-01T08:37:10.483Z,6.10
2019-03-01T08:39:39.369Z,6.00
2019-03-01T08:42:04.479Z,6.33
2019-03-01T08:44:30.653Z,5.53
2019-03-01T08:46:56.749Z,7.10
2019-03-01T08:49:23.532Z,7.20
2019-03-01T08:51:49.870Z,6.40
2019-03-01T08:54:16.114Z,6.20
2019-03-01T08:56:42.427Z,7.77
2019-03-01T08:59:08.476Z,6.70
2019-03-01T09:01:34.610Z,6.23
2019-03-01T09:04:04.536Z,6.17
2019-03-01T09:06:30.761Z,6.17
2019-03-01T09:08:56.874Z,6.57
2019-03-01T09:11:22.914Z,5.47
2019-03-01T09:13:49.014Z,6.20
2019-03-01T09:16:15.251Z,5.90
2019-03-01T09:18:41.469Z,6.50
2019-03-01T09:21:12.377Z,5.87
2019-03-01T09:23:35.644Z,5.90
2019-03-01T09:26:01.800Z,6.10
2019-03-01T09:28:28.031Z,5.73
2019-03-01T09:30:54.478Z,5.23
2019-03-01T09:33:21.234Z,5.83
2019-03-01T09:39:23.723Z,5.30
2019-03-01T09:41:49.829Z,5.40
2019-03-01T09:44:15.868Z,5.60
2019-03-01T09:46:41.983Z,5.43
2019-03-01T09:49:08.100Z,5.43
2019-03-01T09:51:34.662Z,5.90
2019-03-01T09:54:00.975Z,5.17
2019-03-01T09:56:27.147Z,4.30
2019-03-01T09:58:53.742Z,4.97
2019-03-01T10:01:20.449Z,4.43
2019-03-01T10:03:47.747Z,4.57
2019-03-01T10:06:13.828Z,5.50
2019-03-01T10:08:40.318Z,4.87
2019-03-01T10:11:06.339Z,5.17
2019-03-01T10:15:58.908Z,4.63
2019-03-01T10:18:25.061Z,6.83
2019-03-01T10:20:51.306Z,4.77
2019-03-01T10:23:17.789Z,4.80
2019-03-01T10:25:43.895Z,4.20
2019-03-01T10:28:10.135Z,5.40
2019-03-01T10:30:36.320Z,4.87
2019-03-01T10:33:03.853Z,4.60
2019-03-01T10:35:30.286Z,5.13
2019-03-01T10:37:56.335Z,4.60
2019-03-01T10:40:26.606Z,4.47
2019-03-01T10:42:53.073Z,5.90
2019-03-01T10:45:29.440Z,5.90
2019-03-01T10:47:55.604Z,5.30
2019-03-01T10:50:21.714Z,4.23
2019-03-01T10:52:50.860Z,5.60
2019-03-01T10:55:20.100Z,4.63
2019-03-01T10:57:47.000Z,5.20
2019-03-01T11:00:27.408Z,5.63
2019-03-01T11:02:54.788Z,4.03
2019-03-01T11:05:21.432Z,4.90
2019-03-01T11:07:48.946Z,4.67
2019-03-01T11:10:27.646Z,4.07
2019-03-01T11:12:53.665Z,4.00
2019-03-01T11:15:19.790Z,3.67
2019-03-01T11:17:45.950Z,4.00
2019-03-01T11:20:14.778Z,4.10
2019-03-01T11:22:40.914Z,3.93
2019-03-01T11:25:12.049Z,4.37
2019-03-01T11:27:38.136Z,4.43
2019-03-01T11:30:08.090Z,4.60
2019-03-01T11:32:34.225Z,4.53
2019-03-01T11:35:00.310Z,4.40
2019-03-01T11:37:26.389Z,4.10
2019-03-01T11:39:52.446Z,4.83
2019-03-01T11:42:18.477Z,4.53
2019-03-01T11:44:44.879Z,4.20
2019-03-01T11:47:11.807Z,4.70
2019-03-01T11:49:38.271Z,4.73
2019-03-01T11:52:06.336Z,4.00
2019-03-01T11:54:35.452Z,4.47
2019-03-01T11:57:01.888Z,4.40
2019-03-01T11:59:28.120Z,4.20
2019-03-01T12:01:54.484Z,4.40
2019-03-01T12:04:20.619Z,4.07
2019-03-01T12:06:46.671Z,4.73
2019-03-01T12:09:12.787Z,5.27
2019-03-01T12:11:39.221Z,12.07
2019-03-01T12:14:06.699Z,6.87
2019-03-01T12:16:32.991Z,6.23
2019-03-01T12:19:01.382Z,5.20
2019-03-01T12:21:27.586Z,5.70
2019-03-01T12:23:53.805Z,6.20
2019-03-01T12:26:19.997Z,4.43
2019-03-01T12:28:46.097Z,5.67
2019-03-01T12:31:12.645Z,7.30
2019-03-01T12:33:39.035Z,5.27
2019-03-01T12:36:05.243Z,4.97
2019-03-01T12:38:31.305Z,5.30
2019-03-01T12:40:57.438Z,5.30
2019-03-01T12:43:23.474Z,5.60
2019-03-01T12:45:49.501Z,6.00
2019-03-01T12:48:15.535Z,5.93
2019-03-01T12:50:46.365Z,6.17
2019-03-01T12:53:12.989Z,6.43
2019-03-01T12:55:39.159Z,6.00
2019-03-01T12:58:05.391Z,6.13
2019-03-01T13:00:32.908Z,13.17
2019-03-01T13:02:59.183Z,16.60
2019-03-01T13:05:29.074Z,10.00
2019-03-01T13:07:54.478Z,32.80
2019-03-01T13:10:25.887Z,47.63
2019-03-01T13:12:51.946Z,61.20
2019-03-01T13:15:18.320Z,20.87
2019-03-01T13:17:44.704Z,13.53
2019-03-01T13:20:13.488Z,26.30
2019-03-01T13:22:39.786Z,14.90
2019-03-01T13:25:08.087Z,20.67
2019-03-01T13:27:34.206Z,6.10
2019-03-01T13:30:00.564Z,4.93
2019-03-01T13:32:26.760Z,4.80
2019-03-01T13:34:52.938Z,5.20
2019-03-01T13:37:20.340Z,5.57
2019-03-01T13:39:48.679Z,5.30
2019-03-01T13:42:14.850Z,5.10
2019-03-01T13:44:41.017Z,5.50
2019-03-01T13:47:08.674Z,5.60
2019-03-01T13:49:35.323Z,5.40
2019-03-01T13:52:02.781Z,5.67
2019-03-01T13:54:29.111Z,5.70
2019-03-01T13:56:55.229Z,5.10
2019-03-01T13:59:21.357Z,6.00
2019-03-01T14:01:47.786Z,5.63
2019-03-01T14:04:13.946Z,4.30
2019-03-01T14:06:40.027Z,6.60
2019-03-01T14:09:10.052Z,7.07
2019-03-01T14:11:36.271Z,4.77
2019-03-01T14:14:02.801Z,10.70
2019-03-01T14:16:29.343Z,25.17
2019-03-01T14:18:55.906Z,30.13
2019-03-01T14:21:22.094Z,28.77
2019-03-01T14:23:49.881Z,27.03
2019-03-01T14:26:18.659Z,32.10
2019-03-01T14:28:44.334Z,34.00
2019-03-01T14:31:12.179Z,54.37
2019-03-01T14:33:38.421Z,43.00
2019-03-01T14:36:04.573Z,26.00
2019-03-01T14:38:31.023Z,19.43
2019-03-01T14:40:59.629Z,40.23
2019-03-01T14:43:25.322Z,10.13
2019-03-01T14:45:51.451Z,26.00
2019-03-01T14:48:17.530Z,15.67
2019-03-01T14:50:45.006Z,10.00
2019-03-01T14:53:11.389Z,7.17
2019-03-01T14:55:46.988Z,6.43
2019-03-01T14:58:31.915Z,6.77
2019-03-01T15:01:13.316Z,6.57
2019-03-01T15:03:39.440Z,5.13
2019-03-01T15:06:06.315Z,5.23
2019-03-01T15:08:32.736Z,5.07
2019-03-01T15:11:04.350Z,5.20
2019-03-01T15:13:31.446Z,4.97
2019-03-01T15:15:57.375Z,5.73
2019-03-01T15:18:25.029Z,4.57
2019-03-01T15:20:51.240Z,4.90
2019-03-01T15:23:17.273Z,5.00
2019-03-01T15:25:47.293Z,4.77
2019-03-01T15:28:13.251Z,5.33
2019-03-01T15:30:42.571Z,5.40
2019-03-01T15:33:08.528Z,4.60
2019-03-01T15:35:36.301Z,4.90
2019-03-01T15:38:03.733Z,5.10
2019-03-01T15:40:31.366Z,5.10
2019-03-01T15:42:58.131Z,5.27
2019-03-01T15:45:24.160Z,13.87
2019-03-01T15:47:50.515Z,15.60
2019-03-01T15:50:16.840Z,42.07
2019-03-01T15:52:45.655Z,20.80
2019-03-01T15:55:12.009Z,21.10
2019-03-01T15:57:39.068Z,43.27
2019-03-01T16:00:15.046Z,70.73
2019-03-01T16:02:41.455Z,20.20
2019-03-01T16:05:11.985Z,14.90
2019-03-01T16:07:38.178Z,40.83
2019-03-01T16:10:10.028Z,78.67
2019-03-01T16:12:37.401Z,6.03
2019-03-01T16:15:07.262Z,5.73
2019-03-01T16:17:33.338Z,4.70
2019-03-01T16:19:59.421Z,6.67
2019-03-01T16:22:38.873Z,5.43
2019-03-01T16:25:08.175Z,5.70
2019-03-01T16:27:34.688Z,5.20
2019-03-01T16:30:05.065Z,6.07
2019-03-01T16:32:31.362Z,6.60
2019-03-01T16:34:58.613Z,5.70
2019-03-01T16:37:25.969Z,4.47
2019-03-01T16:39:56.158Z,4.77
2019-03-01T16:42:20.653Z,4.00
2019-03-01T16:44:46.703Z,4.33
2019-03-01T16:47:12.829Z,5.40
2019-03-01T16:49:39.019Z,20.00
2019-03-01T16:52:05.160Z,5.27
2019-03-01T16:54:31.676Z,5.60
2019-03-01T16:56:57.918Z,4.90
2019-03-01T16:59:24.110Z,6.03
2019-03-01T17:01:50.167Z,5.50
2019-03-01T17:04:16.350Z,31.00
2019-03-01T17:06:45.405Z,5.57
2019-03-01T17:09:11.762Z,6.30
2019-03-01T17:11:41.500Z,5.10
2019-03-01T17:14:08.477Z,4.70
2019-03-01T17:16:34.643Z,6.00
2019-03-01T17:19:00.803Z,6.57
2019-03-01T17:21:26.829Z,7.77
2019-03-01T17:23:54.653Z,6.97
2019-03-01T17:26:29.978Z,6.70
2019-03-01T17:28:55.187Z,7.43
2019-03-01T17:31:23.220Z,6.50
2019-03-01T17:33:50.059Z,7.77
2019-03-01T17:36:16.784Z,7.83
2019-03-01T17:38:46.071Z,7.10
2019-03-01T17:41:12.042Z,6.47
2019-03-01T17:43:38.089Z,9.77
2019-03-01T17:46:04.130Z,5.67
2019-03-01T17:48:30.182Z,5.90
2019-03-01T17:50:56.345Z,7.10
2019-03-01T17:53:22.692Z,6.70
2019-03-01T17:55:48.838Z,7.13
2019-03-01T17:58:14.930Z,6.77
2019-03-01T18:00:45.154Z,9.43
2019-03-01T18:03:11.383Z,8.73
2019-03-01T18:05:40.696Z,7.63
2019-03-01T18:08:05.487Z,7.60
2019-03-01T18:10:33.049Z,6.60
2019-03-01T18:12:59.266Z,7.37
2019-03-01T18:15:25.619Z,7.53
2019-03-01T18:17:52.430Z,6.30
2019-03-01T18:20:18.661Z,6.67
2019-03-01T18:22:45.980Z,8.30
2019-03-01T18:25:13.793Z,7.30
2019-03-01T18:27:40.088Z,7.40
2019-03-01T18:30:16.072Z,9.40
2019-03-01T18:32:41.760Z,8.70
2019-03-01T18:35:11.603Z,10.50
2019-03-01T18:37:38.614Z,11.83
2019-03-01T18:40:08.093Z,12.40
2019-03-01T18:42:38.072Z,11.87
2019-03-01T18:45:07.146Z,13.13
2019-03-01T18:47:35.138Z,13.53
2019-03-01T18:50:01.477Z,14.97
2019-03-01T18:52:27.862Z,16.07
2019-03-01T18:54:54.133Z,14.27
2019-03-01T18:57:20.377Z,15.13
2019-03-01T18:59:46.806Z,16.00
2019-03-01T19:02:16.514Z,15.20
2019-03-01T19:04:44.580Z,14.90
2019-03-01T19:07:11.138Z,16.40
2019-03-01T19:09:37.282Z,17.43
2019-03-01T19:12:03.509Z,17.97
2019-03-01T19:14:29.851Z,19.17
2019-03-01T19:16:55.970Z,20.23
2019-03-01T19:19:24.440Z,21.43
2019-03-01T19:21:52.660Z,21.93
2019-03-01T19:24:18.101Z,20.53
2019-03-01T19:26:44.489Z,21.10
2019-03-01T19:29:11.030Z,19.07
2019-03-01T19:31:37.175Z,21.83
2019-03-01T19:34:03.348Z,19.80
2019-03-01T19:36:29.493Z,18.40
2019-03-01T19:38:56.826Z,18.87
2019-03-01T19:41:23.907Z,19.20
2019-03-01T19:43:54.928Z,19.20
2019-03-01T19:46:20.157Z,21.17
2019-03-01T19:48:46.457Z,19.83
2019-03-01T19:51:12.582Z,20.10
2019-03-01T19:53:38.708Z,20.27
2019-03-01T19:56:04.919Z,19.90
2019-03-01T19:58:31.090Z,19.90
2019-03-01T20:00:57.376Z,21.90
2019-03-01T20:03:23.553Z,20.93
2019-03-01T20:05:50.731Z,21.87
2019-03-01T20:08:16.773Z,21.13
2019-03-01T20:10:42.903Z,21.10
2019-03-01T20:13:09.033Z,20.97
2019-03-01T20:15:35.157Z,19.90
2019-03-01T20:18:01.331Z,21.37
2019-03-01T20:20:29.987Z,21.57
2019-03-01T20:22:56.116Z,20.60
2019-03-01T20:25:22.295Z,24.10
2019-03-01T20:27:48.344Z,23.33
2019-03-01T20:30:30.651Z,22.03
2019-03-01T20:32:57.066Z,21.13
2019-03-01T20:35:25.687Z,23.07
2019-03-01T20:37:52.222Z,20.80
2019-03-01T20:40:18.520Z,24.00
2019-03-01T20:42:45.395Z,22.30
2019-03-01T20:45:25.903Z,22.20
2019-03-01T20:47:53.532Z,21.70
2019-03-01T20:50:19.748Z,23.93
2019-03-01T20:52:46.214Z,23.27
2019-03-01T20:55:12.718Z,22.43
2019-03-01T20:57:38.883Z,23.43
2019-03-01T21:00:08.633Z,20.97
2019-03-01T21:02:35.123Z,21.83
2019-03-01T21:05:01.219Z,22.27
2019-03-01T21:07:27.271Z,20.60
2019-03-01T21:09:53.734Z,20.90
2019-03-01T21:12:20.085Z,21.50
2019-03-01T21:14:46.108Z,21.37
2019-03-01T21:17:16.717Z,20.00
2019-03-01T21:19:43.737Z,21.57
2019-03-01T21:22:11.205Z,21.50
2019-03-01T21:24:37.296Z,22.30
2019-03-01T21:27:03.788Z,19.53
2019-03-01T21:29:30.020Z,21.67
2019-03-01T21:31:56.575Z,23.33
2019-03-01T21:34:29.279Z,22.50
2019-03-01T21:36:55.405Z,20.93
2019-03-01T21:39:24.090Z,21.17
2019-03-01T21:41:51.321Z,22.20
2019-03-01T21:44:17.659Z,21.53
2019-03-01T21:46:44.416Z,22.20
2019-03-01T21:49:10.805Z,22.73
2019-03-01T21:51:37.255Z,23.53
2019-03-01T21:54:04.415Z,22.47
2019-03-01T21:56:34.753Z,22.73
2019-03-01T21:58:58.816Z,21.33
2019-03-01T22:01:24.936Z,22.50
2019-03-01T22:03:51.165Z,21.70
2019-03-01T22:06:20.650Z,23.20
2019-03-01T22:08:48.610Z,22.53
2019-03-01T22:11:14.490Z,21.40
2019-03-01T22:13:42.820Z,22.50
2019-03-01T22:16:09.417Z,23.87
2019-03-01T22:18:36.339Z,21.70
2019-03-01T22:21:02.714Z,22.03
2019-03-01T22:23:30.826Z,24.00
2019-03-01T22:25:58.246Z,23.00
2019-03-01T22:28:24.577Z,22.70
2019-03-01T22:30:50.836Z,23.70
2019-03-01T22:33:17.423Z,24.30
2019-03-01T22:35:47.597Z,30.60
2019-03-01T22:38:13.761Z,26.30
2019-03-01T22:40:40.395Z,26.00
2019-03-01T22:43:08.710Z,25.57
2019-03-01T22:45:35.446Z,24.17
2019-03-01T22:48:01.696Z,24.10
2019-03-01T22:50:27.926Z,24.63
2019-03-01T22:52:54.157Z,23.20
2019-03-01T22:55:20.674Z,22.63
2019-03-01T22:57:46.888Z,23.03
2019-03-01T23:00:46.944Z,24.13
2019-03-01T23:03:15.315Z,25.47
2019-03-01T23:05:43.056Z,22.80
2019-03-01T23:08:09.170Z,23.27
2019-03-01T23:10:35.346Z,22.00
2019-03-01T23:13:01.457Z,22.40
2019-03-01T23:15:27.970Z,24.23
2019-03-01T23:17:54.030Z,24.60
2019-03-01T23:20:26.249Z,23.47
2019-03-01T23:22:48.465Z,22.43
2019-03-01T23:25:14.695Z,23.80
2019-03-01T23:27:41.552Z,23.77
2019-03-01T23:30:10.128Z,23.10
2019-03-01T23:32:38.172Z,24.10
2019-03-01T23:35:05.223Z,24.43
2019-03-01T23:37:31.602Z,26.67
2019-03-01T23:40:00.922Z,26.00
2019-03-01T23:42:26.270Z,23.97
2019-03-01T23:44:52.682Z,25.10
2019-03-01T23:47:18.824Z,22.30
2019-03-01T23:49:46.810Z,24.70
2019-03-01T23:52:12.976Z,24.83
2019-03-01T23:54:40.604Z,25.83
2019-03-01T23:57:08.014Z,25.50
2019-03-01T23:59:40.390Z,27.00
